Time;durP1;ratioP1;P1;durP2;ratioP2;P2;SDS_P1;SDS_P2;PMS_P1;PMS_P2;Temp;Humidity;BMP_temperature;BMP_pressure;BME280_temperature;BME280_humidity;BME280_pressure;Samples;Min_cycle;Max_cycle;Signal;HPM_P1;HPM_P2
2023/06/24 00:00:28;;;;;;;3.72;2.85;;;;;;;23.39;55.34;93929.41;5005834;28;20057;-89
2023/06/24 00:02:53;;;;;;;6.30;3.15;;;;;;;23.39;55.34;93928.66;5006972;28;20079;-89
2023/06/24 00:05:19;;;;;;;5.68;2.95;;;;;;;23.38;55.08;93919.69;5003778;28;20053;-90
2023/06/24 00:07:44;;;;;;;4.93;2.95;;;;;;;23.38;55.23;93932.72;5005770;28;20042;-89
2023/06/24 00:10:13;;;;;;;4.15;2.67;;;;;;;23.37;55.13;93922.97;5005156;28;20202;-89
2023/06/24 00:12:40;;;;;;;4.40;3.15;;;;;;;23.36;55.39;93915.97;5004303;28;20042;-88
2023/06/24 00:15:07;;;;;;;4.40;3.25;;;;;;;23.36;55.33;93919.47;4988364;28;20038;-91
2023/06/24 00:17:33;;;;;;;6.63;4.07;;;;;;;23.35;55.16;93929.00;5008454;28;20042;-91
2023/06/24 00:19:58;;;;;;;4.25;3.03;;;;;;;23.35;55.33;93923.50;5005156;28;20096;-90
2023/06/24 00:22:23;;;;;;;4.50;3.13;;;;;;;23.35;55.17;93925.50;5005034;28;20103;-89
2023/06/24 00:24:50;;;;;;;4.22;2.60;;;;;;;23.37;55.20;93922.97;4988973;28;20037;-90
2023/06/24 00:27:15;;;;;;;3.72;2.80;;;;;;;23.36;55.18;93927.00;5004105;28;20029;-89
2023/06/24 00:29:41;;;;;;;5.65;3.58;;;;;;;23.35;55.15;93926.25;5007260;28;20049;-91
2023/06/24 00:32:07;;;;;;;4.07;3.17;;;;;;;23.34;55.22;93913.72;5005088;28;20049;-90
2023/06/24 00:34:33;;;;;;;5.63;3.03;;;;;;;23.35;55.20;93942.81;5004971;28;20582;-90
2023/06/24 00:36:58;;;;;;;5.43;2.70;;;;;;;23.32;55.33;93941.09;5005073;28;20033;-90
2023/06/24 00:39:23;;;;;;;4.72;3.70;;;;;;;23.32;55.41;93940.34;5006285;28;20394;-90
2023/06/24 00:41:49;;;;;;;5.47;3.50;;;;;;;23.32;55.35;93941.09;5004278;28;20038;-89
2023/06/24 00:44:14;;;;;;;3.97;3.22;;;;;;;23.33;55.22;93937.06;5006112;28;20046;-90
2023/06/24 00:46:40;;;;;;;3.45;2.83;;;;;;;23.32;55.08;93945.88;5006324;28;20045;-88
2023/06/24 00:49:05;;;;;;;4.68;3.08;;;;;;;23.31;55.21;93941.63;4982720;28;20086;-91
2023/06/24 00:51:32;;;;;;;4.40;3.35;;;;;;;23.32;55.05;93932.81;4967469;28;20447;-91
2023/06/24 00:53:57;;;;;;;3.30;2.63;;;;;;;23.31;55.26;93919.56;4967973;28;20140;-91
2023/06/24 00:56:26;;;;;;;4.82;3.17;;;;;;;23.31;55.11;93916.81;4989330;28;20038;-88
2023/06/24 00:58:54;;;;;;;4.07;3.03;;;;;;;23.32;55.19;93912.78;4983508;28;20053;-88
2023/06/24 01:01:19;;;;;;;4.05;3.17;;;;;;;23.30;54.76;93927.09;4974533;28;20056;-88
2023/06/24 01:03:45;;;;;;;6.03;3.55;;;;;;;23.29;55.34;93920.09;4983782;28;20552;-88
2023/06/24 01:06:11;;;;;;;3.55;2.95;;;;;;;23.30;55.19;93910.53;4984142;28;20436;-90
2023/06/24 01:08:36;;;;;;;3.80;2.95;;;;;;;23.30;55.12;93904.28;4971405;28;20050;-89
2023/06/24 01:11:02;;;;;;;4.95;3.20;;;;;;;23.30;55.32;93904.28;4988671;28;20050;-88
2023/06/24 01:13:27;;;;;;;3.90;2.53;;;;;;;23.30;55.17;93905.03;4986369;28;20042;-92
2023/06/24 01:15:53;;;;;;;3.95;2.78;;;;;;;23.28;55.08;93913.09;4981992;28;20041;-91
2023/06/24 01:18:27;;;;;;;5.13;3.25;;;;;;;23.27;55.20;93919.88;4978059;28;20094;-90
2023/06/24 01:21:05;;;;;;;4.00;2.95;;;;;;;23.28;55.38;93918.59;5003717;28;20137;-90
2023/06/24 01:23:48;;;;;;;5.97;3.13;;;;;;;23.28;55.19;93909.59;5008417;28;20104;-88
2023/06/24 01:26:30;;;;;;;4.63;3.10;;;;;;;23.28;55.08;93913.09;5006191;28;20112;-89
2023/06/24 01:28:59;;;;;;;5.18;2.90;;;;;;;23.28;55.27;93917.88;5023336;28;20041;-89
2023/06/24 01:31:34;;;;;;;3.50;2.53;;;;;;;23.28;55.22;93926.88;5009386;28;20057;-90
2023/06/24 01:34:11;;;;;;;4.63;2.47;;;;;;;23.26;55.09;93921.16;5023452;28;20076;-92
2023/06/24 01:36:37;;;;;;;5.18;3.15;;;;;;;23.25;55.29;93933.44;5007543;28;20045;-89
2023/06/24 01:39:04;;;;;;;3.47;2.63;;;;;;;23.27;55.01;93941.94;5002981;28;20089;-90
2023/06/24 01:41:35;;;;;;;4.07;2.30;;;;;;;23.25;55.02;93941.72;5007719;28;20038;-88
2023/06/24 01:44:00;;;;;;;3.85;2.58;;;;;;;23.25;55.14;93948.00;4997304;28;20056;-89
2023/06/24 01:46:26;;;;;;;3.20;2.50;;;;;;;23.25;54.84;93948.00;4991313;28;20037;-89
2023/06/24 01:48:53;;;;;;;2.97;2.38;;;;;;;23.26;55.28;93959.78;5006286;28;20049;-88
2023/06/24 01:51:19;;;;;;;4.07;2.60;;;;;;;23.24;55.09;93954.78;4997053;28;20546;-89
2023/06/24 01:53:49;;;;;;;3.67;2.38;;;;;;;23.25;55.05;93955.53;5008116;28;20026;-92
2023/06/24 01:56:15;;;;;;;3.40;2.30;;;;;;;23.23;55.00;93953.28;5009572;28;20073;-89
2023/06/24 01:58:40;;;;;;;4.78;2.65;;;;;;;23.24;55.06;93965.81;4992387;28;20511;-89
2023/06/24 02:01:06;;;;;;;4.57;2.58;;;;;;;23.23;55.01;93966.34;4990257;28;20034;-88
2023/06/24 02:03:32;;;;;;;4.82;2.28;;;;;;;23.23;55.15;93972.59;5007463;28;20060;-89
2023/06/24 02:05:57;;;;;;;3.65;2.55;;;;;;;23.21;55.15;93966.13;5007630;28;20059;-88
2023/06/24 02:08:23;;;;;;;3.63;2.70;;;;;;;23.21;55.15;93971.63;5006960;28;20438;-90
2023/06/24 02:10:48;;;;;;;4.40;2.88;;;;;;;23.22;55.16;93976.63;5007009;28;20458;-88
2023/06/24 02:13:14;;;;;;;3.67;2.70;;;;;;;23.22;55.26;93982.16;5007724;28;20034;-89
2023/06/24 02:15:39;;;;;;;5.53;2.72;;;;;;;23.20;55.32;93970.16;4998909;28;20054;-91
2023/06/24 02:18:05;;;;;;;3.53;2.28;;;;;;;23.22;54.75;93973.88;4988558;28;20050;-89
2023/06/24 02:20:31;;;;;;;2.42;2.17;;;;;;;23.21;54.99;93986.19;5007355;28;20091;-88
2023/06/24 02:22:56;;;;;;;2.95;2.10;;;;;;;23.22;55.03;93976.63;4991298;28;20041;-92
2023/06/24 02:25:22;;;;;;;3.58;2.50;;;;;;;23.19;54.95;93974.94;4989180;28;20126;-89
2023/06/24 02:27:48;;;;;;;6.88;2.30;;;;;;;23.22;54.87;93975.88;5006916;28;20405;-92
2023/06/24 02:30:13;;;;;;;2.55;2.30;;;;;;;23.21;54.94;93979.91;5007676;28;20041;-88
2023/06/24 02:32:38;;;;;;;3.08;2.50;;;;;;;23.19;55.06;93969.41;5001645;28;20062;-92
2023/06/24 02:35:07;;;;;;;4.00;2.97;;;;;;;23.21;55.27;93966.13;5007119;28;20456;-92
2023/06/24 02:37:32;;;;;;;3.35;2.25;;;;;;;23.19;55.21;93971.44;5023312;28;20526;-91
2023/06/24 02:39:58;;;;;;;4.50;2.90;;;;;;;23.18;55.34;93969.94;5008138;28;20053;-89
2023/06/24 02:42:23;;;;;;;5.85;2.50;;;;;;;23.19;54.97;93966.66;5022495;28;20042;-89
2023/06/24 02:44:48;;;;;;;2.85;2.33;;;;;;;23.18;55.07;93969.94;5023490;28;20046;-89
2023/06/24 02:47:14;;;;;;;4.13;3.05;;;;;;;23.17;55.07;93960.16;5005945;28;20046;-89
2023/06/24 02:49:40;;;;;;;2.85;2.25;;;;;;;23.16;55.11;93964.22;5005554;28;20041;-92
2023/06/24 02:52:05;;;;;;;4.32;2.67;;;;;;;23.16;55.03;93973.25;4999309;28;20041;-90
2023/06/24 02:54:31;;;;;;;3.45;2.45;;;;;;;23.18;55.08;93967.19;5006236;28;20098;-90
2023/06/24 02:56:57;;;;;;;4.50;2.60;;;;;;;23.17;55.06;93965.69;5009651;28;20033;-88
2023/06/24 02:59:24;;;;;;;5.05;2.60;;;;;;;23.17;54.85;93971.22;5006890;28;20102;-89
2023/06/24 03:01:50;;;;;;;3.00;2.40;;;;;;;23.17;55.06;93971.22;5006572;28;20046;-90
2023/06/24 03:04:15;;;;;;;3.45;2.30;;;;;;;23.15;55.05;93968.25;4988924;28;20042;-87
2023/06/24 03:06:40;;;;;;;3.65;2.15;;;;;;;23.15;55.16;93980.03;4986962;28;20053;-91
2023/06/24 03:09:07;;;;;;;2.95;1.92;;;;;;;23.15;55.07;93977.28;4988768;28;20041;-89
2023/06/24 03:11:40;;;;;;;3.08;2.53;;;;;;;23.15;55.22;93982.78;4989868;28;20045;-88
2023/06/24 03:14:05;;;;;;;2.65;2.15;;;;;;;23.16;54.97;93973.25;5006188;28;20038;-89
2023/06/24 03:16:31;;;;;;;2.67;2.00;;;;;;;23.15;55.19;93982.06;5006716;28;20053;-88
2023/06/24 03:18:56;;;;;;;3.05;2.08;;;;;;;23.14;54.96;93984.06;4991698;28;20045;-93
2023/06/24 03:21:28;;;;;;;3.85;2.22;;;;;;;23.16;55.15;93991.81;5006331;28;20046;-89
2023/06/24 03:23:54;;;;;;;3.05;2.00;;;;;;;23.15;54.98;93988.31;5008100;28;20072;-90
2023/06/24 03:26:19;;;;;;;3.38;2.38;;;;;;;23.13;55.13;93996.38;5021289;28;20046;-89
2023/06/24 03:28:45;;;;;;;2.38;1.80;;;;;;;23.14;54.92;94002.63;5005204;28;20090;-91
2023/06/24 03:31:10;;;;;;;3.58;2.60;;;;;;;23.15;55.07;94002.09;5005768;28;20061;-91
2023/06/24 03:33:36;;;;;;;3.22;2.00;;;;;;;23.13;55.12;94004.63;4988997;28;20097;-89
2023/06/24 03:36:01;;;;;;;3.05;2.13;;;;;;;23.13;54.94;94001.13;5007741;28;20042;-91
2023/06/24 03:38:27;;;;;;;2.70;2.03;;;;;;;23.14;54.99;94008.16;4989622;28;20057;-89
2023/06/24 03:40:53;;;;;;;3.33;2.10;;;;;;;23.12;55.19;94014.19;5006453;28;20042;-90
2023/06/24 03:43:18;;;;;;;2.92;2.38;;;;;;;23.13;55.25;94021.19;5007472;28;20041;-89
2023/06/24 03:45:44;;;;;;;3.35;1.90;;;;;;;23.11;55.24;94012.69;5020061;28;20038;-88
2023/06/24 03:48:10;;;;;;;2.78;1.98;;;;;;;23.12;55.14;94013.44;4963708;28;20559;-89
2023/06/24 03:50:35;;;;;;;3.55;2.00;;;;;;;23.11;55.05;94018.22;4989785;28;20121;-88
2023/06/24 03:53:01;;;;;;;2.80;2.10;;;;;;;23.14;55.17;94025.44;5006070;28;20034;-89
2023/06/24 03:55:26;;;;;;;2.67;2.00;;;;;;;23.13;55.22;94023.94;5005069;28;20037;-90
2023/06/24 03:57:52;;;;;;;2.25;1.73;;;;;;;23.13;55.35;94031.47;5007976;28;20049;-92
2023/06/24 04:00:20;;;;;;;2.88;2.20;;;;;;;23.16;55.24;94028.41;5005183;28;20041;-91
2023/06/24 04:02:46;;;;;;;4.43;2.78;;;;;;;23.13;55.32;94018.44;5004403;28;20415;-88
2023/06/24 04:05:11;;;;;;;2.63;2.03;;;;;;;23.12;55.08;94038.25;5006472;28;20037;-88
2023/06/24 04:07:36;;;;;;;2.92;2.22;;;;;;;23.12;55.10;94035.50;5021349;28;20484;-90
2023/06/24 04:10:03;;;;;;;1.92;1.73;;;;;;;23.13;55.24;94025.97;5004790;28;20034;-90
2023/06/24 04:12:29;;;;;;;2.85;2.10;;;;;;;23.10;55.25;94033.28;4976537;28;20057;-89
2023/06/24 04:14:54;;;;;;;3.78;2.35;;;;;;;23.10;55.14;94036.03;5022127;28;20050;-88
2023/06/24 04:17:19;;;;;;;2.97;2.33;;;;;;;23.11;55.19;94037.53;5004832;28;20045;-89
2023/06/24 04:19:45;;;;;;;3.03;2.17;;;;;;;23.12;55.43;94043.78;5006757;28;20112;-88
2023/06/24 04:22:10;;;;;;;3.20;2.20;;;;;;;23.11;55.19;94053.31;5006303;28;20083;-90
2023/06/24 04:24:36;;;;;;;2.22;1.90;;;;;;;23.10;55.17;94052.56;5005645;28;20050;-90
2023/06/24 04:27:01;;;;;;;2.28;1.90;;;;;;;23.12;55.07;94054.81;5005228;28;20045;-90
2023/06/24 04:29:26;;;;;;;1.85;1.60;;;;;;;23.08;55.44;94046.84;5004348;28;20037;-90
2023/06/24 04:31:52;;;;;;;2.50;2.20;;;;;;;23.10;55.14;94054.59;5004323;28;20038;-89
2023/06/24 04:34:18;;;;;;;2.97;1.90;;;;;;;23.10;55.37;94055.34;5004771;28;20050;-88
2023/06/24 04:36:43;;;;;;;2.55;1.88;;;;;;;23.10;54.99;94062.88;5007253;28;20062;-89
2023/06/24 04:39:08;;;;;;;2.45;2.03;;;;;;;23.10;54.96;94065.63;5003343;28;20488;-89
2023/06/24 04:41:34;;;;;;;2.28;1.77;;;;;;;23.09;55.27;94066.88;5008363;28;20067;-90
2023/06/24 04:43:59;;;;;;;2.67;2.00;;;;;;;23.10;55.05;94074.63;5009692;28;20303;-88
2023/06/24 04:46:25;;;;;;;3.03;2.00;;;;;;;23.08;55.13;94065.41;5009597;28;20111;-89
2023/06/24 04:48:50;;;;;;;3.25;2.30;;;;;;;23.09;55.01;94058.63;5008906;28;20100;-89
2023/06/24 04:51:16;;;;;;;3.60;2.20;;;;;;;23.09;55.08;94061.38;5008619;28;20112;-90
2023/06/24 04:53:41;;;;;;;2.08;1.73;;;;;;;23.07;54.97;94074.94;5007572;28;20107;-88
2023/06/24 04:56:06;;;;;;;2.10;1.88;;;;;;;23.06;55.24;94073.44;5015539;28;20111;-90
2023/06/24 04:58:32;;;;;;;2.50;2.05;;;;;;;23.08;54.92;94068.16;4995488;28;20500;-89
2023/06/24 05:00:58;;;;;;;2.42;1.60;;;;;;;23.08;55.19;94074.41;5007199;28;20042;-90
2023/06/24 05:03:24;;;;;;;4.07;2.05;;;;;;;23.07;54.90;94075.69;5008260;28;20092;-88
2023/06/24 05:05:49;;;;;;;3.90;2.08;;;;;;;23.07;55.14;94077.69;5010317;28;20046;-90
2023/06/24 05:08:15;;;;;;;2.70;1.98;;;;;;;23.08;54.89;94079.19;5023981;28;20087;-89
2023/06/24 05:10:40;;;;;;;3.03;1.85;;;;;;;23.07;55.10;94089.47;5025220;28;20049;-88
2023/06/24 05:13:06;;;;;;;2.42;2.00;;;;;;;23.06;54.94;94085.22;5008555;28;20040;-88
2023/06/24 05:15:31;;;;;;;3.35;1.80;;;;;;;23.07;55.05;94089.47;5015629;28;20042;-88
2023/06/24 05:17:57;;;;;;;2.95;1.90;;;;;;;23.08;55.17;94092.97;5002523;28;20040;-89
2023/06/24 05:20:22;;;;;;;2.15;1.88;;;;;;;23.08;55.00;94090.22;5009304;28;20042;-89
2023/06/24 05:22:48;;;;;;;4.05;2.15;;;;;;;23.06;54.99;94087.25;5009604;28;20068;-88
2023/06/24 05:25:14;;;;;;;3.00;2.15;;;;;;;23.07;55.04;94086.72;5009680;28;20495;-89
2023/06/24 05:27:39;;;;;;;2.88;1.92;;;;;;;23.08;54.94;94092.97;5006455;28;20045;-91
2023/06/24 05:30:06;;;;;;;3.83;1.98;;;;;;;23.06;54.98;94081.72;5009767;28;20451;-90
2023/06/24 05:32:31;;;;;;;2.42;1.92;;;;;;;23.07;54.97;94097.00;5008070;28;20061;-91
2023/06/24 05:34:56;;;;;;;2.38;1.80;;;;;;;23.06;55.03;94098.28;5008912;28;20038;-92
2023/06/24 05:37:22;;;;;;;3.22;1.77;;;;;;;23.06;54.89;94106.53;4992601;28;20115;-91
2023/06/24 05:39:47;;;;;;;3.00;2.17;;;;;;;23.06;55.22;94112.06;5008386;28;20080;-92
2023/06/24 05:42:13;;;;;;;3.08;2.22;;;;;;;23.06;55.27;94112.06;5008333;28;20037;-91
2023/06/24 05:44:38;;;;;;;2.17;1.70;;;;;;;23.06;54.65;94114.81;5010347;28;20046;-89
2023/06/24 05:47:03;;;;;;;3.53;2.10;;;;;;;23.04;55.17;94114.59;5023799;28;20084;-91
2023/06/24 05:49:29;;;;;;;4.75;2.28;;;;;;;23.05;55.16;94110.56;5008410;28;20038;-90
2023/06/24 05:51:55;;;;;;;3.00;2.22;;;;;;;23.03;55.17;94111.09;5006991;28;20045;-91
2023/06/24 05:54:21;;;;;;;2.95;2.17;;;;;;;23.05;55.09;94118.84;5007225;28;20048;-92
2023/06/24 05:56:46;;;;;;;3.83;2.08;;;;;;;23.04;55.24;94111.84;5010090;28;20042;-90
2023/06/24 05:59:11;;;;;;;3.75;2.35;;;;;;;23.06;55.05;94120.34;5011054;28;20033;-91
2023/06/24 06:01:37;;;;;;;3.08;1.65;;;;;;;23.04;54.83;94129.13;5010808;28;20045;-91
2023/06/24 06:04:02;;;;;;;2.97;1.80;;;;;;;23.05;54.99;94132.63;5009979;28;20041;-89
2023/06/24 06:06:28;;;;;;;2.78;1.63;;;;;;;23.03;54.99;94135.91;5009541;28;20048;-92
2023/06/24 06:08:54;;;;;;;2.88;1.70;;;;;;;23.06;55.03;94145.16;5008275;28;20053;-90
2023/06/24 06:11:19;;;;;;;3.38;2.30;;;;;;;23.04;55.17;94148.44;5007604;28;20070;-91
2023/06/24 06:13:45;;;;;;;2.72;2.42;;;;;;;23.04;55.03;94148.44;5008626;28;20088;-90
2023/06/24 06:16:11;;;;;;;2.67;1.75;;;;;;;23.03;54.92;94140.69;5006279;28;20050;-91
2023/06/24 06:18:37;;;;;;;3.08;2.22;;;;;;;23.03;54.91;94146.19;5008351;28;20042;-90
2023/06/24 06:21:02;;;;;;;2.63;1.90;;;;;;;23.04;55.00;94153.19;5009273;28;20041;-89
2023/06/24 06:23:27;;;;;;;2.45;2.00;;;;;;;23.03;55.18;94152.47;5008448;28;20053;-91
2023/06/24 06:25:53;;;;;;;2.55;1.70;;;;;;;23.04;55.06;94155.97;5007667;28;20045;-90
2023/06/24 06:28:18;;;;;;;2.40;1.90;;;;;;;23.03;55.12;94148.97;5008041;28;20104;-91
2023/06/24 06:30:44;;;;;;;2.53;1.88;;;;;;;23.03;54.97;94144.19;5008007;28;20536;-92
2023/06/24 06:33:09;;;;;;;3.05;1.75;;;;;;;23.03;54.96;94146.94;5008562;28;20432;-89
2023/06/24 06:35:34;;;;;;;2.38;2.03;;;;;;;23.03;54.98;94148.97;4990999;28;20045;-89
2023/06/24 06:38:00;;;;;;;3.67;2.38;;;;;;;23.03;55.00;94154.47;5006101;28;20045;-89
2023/06/24 06:40:28;;;;;;;3.65;2.10;;;;;;;23.03;54.81;94146.19;5007815;28;20056;-92
2023/06/24 06:42:53;;;;;;;3.08;1.75;;;;;;;23.02;54.71;94150.22;5007058;28;20407;-89
2023/06/24 06:45:19;;;;;;;2.22;1.50;;;;;;;23.01;54.95;94152.22;5005499;28;20034;-89
2023/06/24 06:47:44;;;;;;;3.20;2.28;;;;;;;23.03;54.91;94140.69;5008742;28;20041;-89
2023/06/24 06:50:10;;;;;;;2.22;1.90;;;;;;;23.03;55.05;94146.94;5021409;28;20049;-90
2023/06/24 06:52:36;;;;;;;2.42;1.92;;;;;;;23.03;54.98;94151.72;5005639;28;20041;-90
2023/06/24 06:55:01;;;;;;;2.38;1.75;;;;;;;23.03;54.69;94154.47;5006918;28;20397;-91
2023/06/24 06:57:26;;;;;;;2.35;1.65;;;;;;;23.04;55.18;94151.19;5006199;28;20451;-88
2023/06/24 06:59:52;;;;;;;2.35;2.10;;;;;;;23.04;54.75;94136.66;5007818;28;20036;-89
2023/06/24 07:02:18;;;;;;;2.58;1.88;;;;;;;23.05;54.80;94149.94;5007865;28;20507;-89
2023/06/24 07:04:43;;;;;;;2.80;2.22;;;;;;;23.03;54.92;94144.19;4990435;28;20042;-88
2023/06/24 07:07:09;;;;;;;2.30;1.88;;;;;;;23.03;55.11;94157.22;5004669;28;20526;-90
2023/06/24 07:09:35;;;;;;;76.88;66.15;;;;;;;23.06;55.15;94153.44;5006719;28;20144;-89
2023/06/24 07:12:01;;;;;;;191.40;173.50;;;;;;;23.07;55.05;94158.41;5005345;28;20415;-91
2023/06/24 07:14:27;;;;;;;108.80;98.05;;;;;;;23.07;55.15;94157.69;4987702;28;20052;-92
2023/06/24 07:16:52;;;;;;;138.45;125.95;;;;;;;23.07;54.88;94149.41;5008483;28;20057;-87
2023/06/24 07:19:18;;;;;;;3.25;2.90;;;;;;;23.04;55.05;94158.72;5000784;28;20401;-89
2023/06/24 07:21:44;;;;;;;2.55;2.00;;;;;;;23.03;55.07;94154.47;4987008;28;20054;-88
2023/06/24 07:24:09;;;;;;;2.75;2.10;;;;;;;23.03;55.39;94157.22;4988072;28;20097;-88
2023/06/24 07:26:35;;;;;;;2.83;2.00;;;;;;;23.04;55.09;94153.94;5005023;28;20046;-88
2023/06/24 07:29:00;;;;;;;4.35;2.05;;;;;;;23.03;54.90;94157.97;5003492;28;20100;-89
2023/06/24 07:31:25;;;;;;;2.70;1.90;;;;;;;23.04;54.72;94153.94;5004167;28;20056;-89
2023/06/24 07:33:51;;;;;;;2.83;2.00;;;;;;;23.04;54.72;94150.44;4988674;28;20388;-89
2023/06/24 07:36:16;;;;;;;2.78;2.38;;;;;;;23.05;54.86;94154.69;5002831;28;20161;-91
2023/06/24 07:38:42;;;;;;;2.45;2.00;;;;;;;23.05;54.79;94141.66;4988368;28;20060;-89
2023/06/24 07:41:07;;;;;;;1.70;1.55;;;;;;;23.04;54.83;94148.44;5003408;28;20496;-88
2023/06/24 07:43:32;;;;;;;3.20;1.95;;;;;;;23.04;54.80;94156.72;4988798;28;20033;-90
2023/06/24 07:45:58;;;;;;;3.88;2.30;;;;;;;23.03;54.91;94157.97;5007425;28;20404;-88
2023/06/24 07:48:23;;;;;;;2.40;1.80;;;;;;;23.05;55.02;94157.44;5006139;28;20034;-88
2023/06/24 07:50:49;;;;;;;4.30;1.98;;;;;;;23.03;54.99;94169.00;5003757;28;20061;-88
2023/06/24 07:53:14;;;;;;;2.63;2.17;;;;;;;23.05;54.73;94162.97;4983379;28;20038;-89
2023/06/24 07:55:40;;;;;;;2.53;1.80;;;;;;;23.03;54.81;94160.00;5006922;28;20341;-90
2023/06/24 07:58:05;;;;;;;2.88;2.20;;;;;;;23.04;54.90;94167.00;5021931;28;20045;-88
2023/06/24 08:00:31;;;;;;;2.50;1.90;;;;;;;23.03;55.07;94171.75;5007943;28;20034;-89
2023/06/24 08:02:57;;;;;;;3.65;2.60;;;;;;;23.04;54.97;94173.25;5005538;28;20030;-90
2023/06/24 08:05:23;;;;;;;4.00;2.17;;;;;;;23.04;55.04;94178.78;5006671;28;20120;-90
2023/06/24 08:07:50;;;;;;;3.38;2.40;;;;;;;23.05;54.74;94179.50;5004267;28;20041;-89
2023/06/24 08:10:15;;;;;;;2.80;2.50;;;;;;;23.05;54.84;94190.53;5005191;28;20046;-91
2023/06/24 08:12:41;;;;;;;4.18;2.65;;;;;;;23.03;54.95;94190.31;5006502;28;20060;-90
2023/06/24 08:15:08;;;;;;;2.97;2.55;;;;;;;23.05;54.84;94182.28;5003814;28;20523;-90
2023/06/24 08:17:33;;;;;;;3.78;3.03;;;;;;;23.04;54.97;94176.00;5006577;28;20050;-88
2023/06/24 08:19:59;;;;;;;7.30;4.40;;;;;;;23.07;54.42;94188.75;4969799;28;20531;-89
2023/06/24 08:22:24;;;;;;;5.78;3.70;;;;;;;23.00;54.93;94189.34;4999079;28;20448;-89
2023/06/24 08:24:50;;;;;;;5.05;3.75;;;;;;;22.99;54.34;94185.09;5005581;28;20038;-90
2023/06/24 08:27:15;;;;;;;6.10;3.28;;;;;;;23.01;54.71;94195.59;4988939;28;20064;-91
2023/06/24 08:29:41;;;;;;;7.05;5.13;;;;;;;23.01;54.50;94193.59;5003987;28;20053;-88
2023/06/24 08:32:06;;;;;;;5.00;4.35;;;;;;;23.02;54.83;94197.09;4989130;28;20050;-90
2023/06/24 08:34:32;;;;;;;5.13;3.60;;;;;;;23.00;54.58;94194.13;4989044;28;20034;-88
2023/06/24 08:36:58;;;;;;;4.55;3.70;;;;;;;23.00;54.67;94203.13;5003691;28;20393;-91
2023/06/24 08:39:23;;;;;;;5.75;4.50;;;;;;;23.03;54.49;94199.34;5006243;28;20496;-88
2023/06/24 08:41:49;;;;;;;6.57;4.47;;;;;;;23.03;54.38;94196.59;5006151;28;20056;-89
2023/06/24 08:44:14;;;;;;;4.75;4.25;;;;;;;23.04;54.48;94205.59;5020257;28;20045;-88
2023/06/24 08:46:40;;;;;;;8.43;4.50;;;;;;;23.06;54.34;94192.78;5006995;28;20042;-89
2023/06/24 08:49:13;;;;;;;6.57;4.35;;;;;;;23.03;54.43;94201.34;5005080;28;20038;-88
2023/06/24 08:51:40;;;;;;;5.20;4.20;;;;;;;23.02;54.35;94208.13;5003951;28;20046;-87
2023/06/24 08:54:06;;;;;;;5.95;3.90;;;;;;;23.02;54.61;94202.63;4996832;28;20042;-88
2023/06/24 08:56:33;;;;;;;5.55;4.35;;;;;;;23.02;54.50;94208.13;4989189;28;20056;-90
2023/06/24 08:59:01;;;;;;;5.88;3.92;;;;;;;23.03;54.56;94206.88;4986394;28;20499;-90
2023/06/24 09:01:26;;;;;;;5.35;3.63;;;;;;;23.04;54.49;94217.38;4999047;28;20064;-88
2023/06/24 09:03:52;;;;;;;6.82;4.45;;;;;;;23.02;54.73;94213.66;5001997;28;20033;-89
2023/06/24 09:06:17;;;;;;;9.95;6.93;;;;;;;23.03;54.62;94215.13;4985423;28;20104;-88
2023/06/24 09:08:52;;;;;;;9.07;5.90;;;;;;;23.03;54.55;94215.13;5003932;28;20591;-88
2023/06/24 09:11:27;;;;;;;18.90;16.67;;;;;;;23.03;54.42;94221.41;5011194;28;20124;-89
2023/06/24 09:13:59;;;;;;;9.65;7.75;;;;;;;23.05;54.64;94220.88;5022058;28;20442;-89
2023/06/24 09:16:25;;;;;;;11.55;10.13;;;;;;;23.04;54.44;94211.88;5003468;28;20419;-87
2023/06/24 09:18:50;;;;;;;9.07;7.60;;;;;;;23.03;54.69;94220.66;5007945;28;20081;-89
2023/06/24 09:21:25;;;;;;;6.88;4.97;;;;;;;23.13;52.97;94227.31;4979457;28;20038;-88
2023/06/24 09:23:57;;;;;;;7.93;6.30;;;;;;;22.86;52.89;94221.63;5007443;28;20260;-89
2023/06/24 09:26:25;;;;;;;9.00;6.50;;;;;;;22.66;52.35;94227.63;5004152;28;20054;-88
2023/06/24 09:28:50;;;;;;;7.10;5.95;;;;;;;22.50;52.30;94226.56;5018245;28;20415;-87
2023/06/24 09:31:16;;;;;;;9.18;6.97;;;;;;;22.08;52.64;94216.97;5007686;28;20046;-90
2023/06/24 09:33:43;;;;;;;10.18;6.97;;;;;;;21.87;52.85;94237.88;5001376;28;20041;-89
2023/06/24 09:36:12;;;;;;;8.65;6.50;;;;;;;21.90;52.55;94234.13;5004061;28;20042;-90
2023/06/24 09:38:40;;;;;;;11.25;7.55;;;;;;;21.62;53.10;94228.88;5009563;28;20108;-90
2023/06/24 09:41:06;;;;;;;8.10;7.20;;;;;;;21.61;52.83;94237.63;4988346;28;20105;-87
2023/06/24 09:43:39;;;;;;;10.75;7.63;;;;;;;21.51;53.31;94231.69;5008725;28;20029;-87
2023/06/24 09:46:05;;;;;;;10.20;8.15;;;;;;;21.36;53.36;94245.06;4991803;28;20463;-89
2023/06/24 09:48:30;;;;;;;9.18;7.32;;;;;;;21.37;53.44;94232.78;4988436;28;20043;-87
2023/06/24 09:50:59;;;;;;;7.65;6.85;;;;;;;21.33;53.95;94230.31;5007055;28;20404;-91
2023/06/24 09:53:24;;;;;;;8.60;7.43;;;;;;;21.28;53.67;94227.59;4984072;28;20556;-88
2023/06/24 09:55:50;;;;;;;8.05;7.25;;;;;;;21.28;53.76;94236.59;4986302;28;20052;-89
2023/06/24 09:58:15;;;;;;;9.77;7.22;;;;;;;21.29;53.79;94226.34;5006767;28;20034;-91
2023/06/24 10:00:41;;;;;;;7.03;6.30;;;;;;;21.24;53.64;94224.38;5013034;28;20053;-89
2023/06/24 10:03:06;;;;;;;6.82;6.13;;;;;;;21.12;54.15;94242.91;4991320;28;20034;-87
2023/06/24 10:05:32;;;;;;;7.40;6.47;;;;;;;21.06;54.35;94236.69;5007596;28;20045;-88
2023/06/24 10:07:57;;;;;;;9.95;6.63;;;;;;;21.07;54.75;94236.19;4987632;28;20031;-91
2023/06/24 10:10:22;;;;;;;8.55;7.25;;;;;;;21.02;54.43;94225.22;4993454;28;20131;-87
2023/06/24 10:12:48;;;;;;;7.75;6.88;;;;;;;20.81;54.93;94231.06;5007095;28;20038;-87
2023/06/24 10:15:13;;;;;;;14.45;6.78;;;;;;;20.82;54.97;94238.06;5006513;28;20570;-87
2023/06/24 10:17:39;;;;;;;9.68;7.47;;;;;;;20.73;55.15;94229.38;4980195;28;20161;-88
2023/06/24 10:20:06;;;;;;;8.48;6.70;;;;;;;20.82;54.67;94240.06;5006965;28;20433;-87
2023/06/24 10:22:31;;;;;;;10.40;7.60;;;;;;;20.82;54.99;94234.56;5007633;28;20078;-89
2023/06/24 10:24:59;;;;;;;12.65;7.55;;;;;;;20.76;55.23;94234.59;5007645;28;20088;-91
2023/06/24 10:27:27;;;;;;;10.32;7.22;;;;;;;20.77;55.40;94238.84;5007208;28;20500;-89
2023/06/24 10:29:53;;;;;;;14.43;7.70;;;;;;;20.70;55.56;94231.13;5006687;28;20465;-89
2023/06/24 10:32:19;;;;;;;14.18;7.35;;;;;;;20.65;55.79;94240.13;5005608;28;20046;-87
2023/06/24 10:34:45;;;;;;;8.65;7.25;;;;;;;20.65;55.62;94231.16;5005793;28;20065;-88
2023/06/24 10:37:20;;;;;;;12.65;7.35;;;;;;;20.59;55.79;94227.66;4990156;28;20038;-87
2023/06/24 10:39:49;;;;;;;9.43;7.35;;;;;;;20.41;56.19;94229.72;5006627;28;20038;-91
2023/06/24 10:42:41;;;;;;;9.88;8.68;;;;;;;20.48;56.09;94231.97;4983999;28;20400;-89
2023/06/24 10:45:09;;;;;;;9.98;7.43;;;;;;;20.57;55.87;94221.94;5007039;28;20038;-88
2023/06/24 10:47:42;;;;;;;10.75;8.00;;;;;;;20.65;56.07;94215.41;5008360;28;20516;-88
2023/06/24 10:50:08;;;;;;;8.90;8.00;;;;;;;20.62;56.24;94218.41;5005715;28;20042;-87
2023/06/24 10:52:37;;;;;;;8.13;7.07;;;;;;;20.59;56.17;94211.19;5006870;28;20073;-88
2023/06/24 10:55:03;;;;;;;9.02;7.50;;;;;;;20.62;56.29;94213.66;5014075;28;20033;-86
2023/06/24 10:57:29;;;;;;;8.80;6.60;;;;;;;20.64;56.25;94211.16;5007455;28;20069;-87
2023/06/24 10:59:56;;;;;;;10.98;7.80;;;;;;;20.59;56.48;94211.19;5003025;28;20030;-88
2023/06/24 11:02:23;;;;;;;8.10;6.95;;;;;;;20.52;56.81;94204.97;4990819;28;20193;-87
2023/06/24 11:04:53;;;;;;;8.88;7.57;;;;;;;20.56;56.49;94190.25;5005534;28;20050;-89
2023/06/24 11:07:20;;;;;;;11.07;7.93;;;;;;;20.66;56.54;94191.44;5011591;28;20026;-90
2023/06/24 11:09:51;;;;;;;9.27;8.00;;;;;;;20.51;56.54;94200.00;5008346;28;20415;-90
2023/06/24 11:12:16;;;;;;;;;;;;;;;20.53;56.91;94200.97;5005366;28;20061;-91
2023/06/24 11:14:42;;;;;;;8.63;7.10;;;;;;;20.52;56.80;94188.50;5006700;28;19925;-91
2023/06/24 11:17:07;;;;;;;7.90;7.10;;;;;;;20.50;56.95;94191.00;5023329;28;20283;-87
2023/06/24 11:19:33;;;;;;;7.82;7.03;;;;;;;20.52;57.17;94193.25;5006946;28;20030;-88
2023/06/24 11:22:00;;;;;;;9.43;7.78;;;;;;;20.42;57.27;94181.03;5005166;28;20137;-89
2023/06/24 11:24:26;;;;;;;8.30;7.25;;;;;;;20.55;56.93;94180.50;5006394;28;20056;-89
2023/06/24 11:26:51;;;;;;;7.82;6.75;;;;;;;20.55;56.44;94186.00;5005317;28;20045;-89